メインページ
METAR-TAF:

METAR-TAF

空港 :

ザグレブ, クロアチア

ザグレブ国際空港

緯度: 45-44N, 経度: 016-04E, 海抜: 106m

現時点の気象観測

当レポートは10分前の14:30(UTC)に作成
北西の風 3kt、西から北/北西の間で変化する
気温 25°C
湿度 50%
気圧 1004 hPa
視程10km以上
高度4000ftの雲はほとんどない, 塔状積雲.

METAR: LDZA 261430Z 31003KT 260V340 9999 FEW040TCU 25/14 Q1004 BECMG 25015KT TSRA FEW040CB

時間: 16:40 (14:40 UTC)

予報

当レポートは3時間15分前の11:25(UTC)に作成
予報は26日の 12時(UTC)から 27日の 12時(UTC)まで有効
変向風 2kt
視程10km以上
高度3000ftの雲は散在している
確率 40% :
26日の 14時(UTC)から 26日の 21時(UTC)まで一時的に
北西の風 10kt
高度4000ftの雲はほとんどない, 積乱雲.
激しい雷雨, 雨

TAF: LDZA 261125Z 2612/2712 VRB02KT 9999 SCT030 TX26/2613Z TN14/2703Z PROB40 TEMPO 2614/2621 32010KT TSRA FEW040CB

4,000以上の空港の気象観測と天気予報(METAR報とTAF報)

利用可能な観測所は地図上に黄色い丸と赤い丸で示す。

丸の上にカーソルを重ねると観測所名を参照できる。

次にクリックすると気象観測と天気予報を参照できる。

マップの切り替え:黒色「×」印の緑ボタンをクリックして拡大、「-」印の緑ボタンをクリックして縮小、緑色の三角印をクリックして隣りの地図に切り替え


METAR-TAF: